Shenley AV, United Kingdom
Current Conditions -  °F | °C
As of 2:50 AM on Sunday 26 Oct 2014 (Local Time) from EGWU Reporting Station
Scattered Clouds Scattered Clouds  
Wind Chill: 12°   Ceiling: Unl
Heat Index: 12°   Visibility: 6mi
Dew Point:   Wind: 8mph
Humidity: 72%   Direction: 210°SSW
Pressure: 30.15"   Gusts: NA
Location:  51.69°N, 0.28°W
Report Text: EGWU 260150Z AUTO 21007KT 9999 // SCT038/// 12/07 Q1021
Loading
Personal Weather Stations






























Interactive Weather Map
Tropical Storm Tracking
New forecast layout! Learn more

10-Day Weather Forecast

Advertisements
Track Severe Weather on mobile